createdAt,value
2019-06-11T09:19:02.335Z,60
2019-06-11T09:20:04.576Z,58
2019-06-11T09:21:06.804Z,59
2019-06-11T09:22:12.120Z,58
2019-06-11T09:23:14.393Z,58
2019-06-11T09:24:16.632Z,57
2019-06-11T09:25:21.529Z,58
2019-06-11T09:26:23.715Z,58
2019-06-11T09:27:26.277Z,57
2019-06-11T09:28:31.729Z,58
2019-06-11T09:29:33.961Z,58
2019-06-11T09:30:36.237Z,58
2019-06-11T09:31:41.215Z,58
2019-06-11T09:32:51.444Z,58
2019-06-11T09:33:55.629Z,58
2019-06-11T09:35:01.081Z,58
2019-06-11T09:36:04.839Z,58
2019-06-11T09:37:07.252Z,57
2019-06-11T09:38:11.774Z,57
2019-06-11T09:39:14.363Z,57
2019-06-11T09:40:17.163Z,58
2019-06-11T09:41:21.873Z,58
2019-06-11T09:42:24.411Z,59
2019-06-11T09:43:27.648Z,58
2019-06-11T09:44:33.612Z,58
2019-06-11T09:45:37.930Z,57
2019-06-11T09:46:55.589Z,58
2019-06-11T09:48:11.682Z,59
2019-06-11T09:49:16.505Z,58
2019-06-11T09:50:21.906Z,59
2019-06-11T09:51:24.921Z,59
2019-06-11T09:52:27.163Z,58
2019-06-11T09:53:32.052Z,58
2019-06-11T09:54:35.014Z,57
2019-06-11T09:55:40.117Z,59
2019-06-11T09:56:54.081Z,58
2019-06-11T09:58:05.185Z,58
2019-06-11T09:59:07.994Z,58
2019-06-11T10:00:13.497Z,58
2019-06-11T10:01:15.689Z,58
2019-06-11T10:02:17.997Z,58
2019-06-11T10:03:22.856Z,58
2019-06-11T10:04:25.748Z,58
2019-06-11T10:05:31.179Z,58
2019-06-11T10:06:35.008Z,59
2019-06-11T10:07:40.487Z,59
2019-06-11T10:08:46.493Z,59
2019-06-11T10:09:54.858Z,60
2019-06-11T10:12:06.386Z,59
2019-06-11T10:13:11.612Z,60
2019-06-11T10:14:14.422Z,60
2019-06-11T10:15:16.675Z,59
2019-06-11T10:16:23.604Z,59
2019-06-11T10:17:25.870Z,60
2019-06-11T10:18:30.798Z,60
2019-06-11T10:19:33.332Z,61
2019-06-11T10:20:37.614Z,62
2019-06-11T10:21:44.885Z,62
2019-06-11T10:22:55.165Z,61
2019-06-11T10:24:01.800Z,61
2019-06-11T10:25:04.629Z,60
2019-06-11T10:26:06.882Z,60
2019-06-11T10:27:11.349Z,61
2019-06-11T10:28:26.459Z,61
2019-06-11T10:29:31.330Z,60
2019-06-11T10:30:34.130Z,60
2019-06-11T10:31:36.839Z,60
2019-06-11T10:32:43.543Z,60
2019-06-11T10:33:54.970Z,60
2019-06-11T10:35:04.023Z,61
2019-06-11T10:36:11.219Z,59
2019-06-11T10:37:14.011Z,58
2019-06-11T10:38:20.740Z,58
2019-06-11T10:39:26.683Z,59
2019-06-11T10:40:31.778Z,59
2019-06-11T10:42:05.276Z,57
2019-06-11T10:43:13.452Z,57
2019-06-11T10:44:25.881Z,58
2019-06-11T10:45:31.979Z,56
2019-06-11T10:46:36.983Z,55
2019-06-11T10:47:41.388Z,55
2019-06-11T10:48:57.511Z,55
2019-06-11T10:50:05.853Z,56
2019-06-11T10:51:15.146Z,55
2019-06-11T10:52:20.944Z,54
2019-06-11T10:53:24.865Z,53
2019-06-11T10:54:32.180Z,53
2019-06-11T10:55:42.710Z,53
2019-06-11T10:57:02.816Z,54
2019-06-11T10:58:12.082Z,56
2019-06-11T10:59:15.822Z,55
2019-06-11T11:00:25.963Z,54
2019-06-11T11:01:37.203Z,53
2019-06-11T11:02:53.922Z,51
2019-06-11T11:04:06.708Z,51
2019-06-11T11:05:13.833Z,50
2019-06-11T11:06:20.449Z,50
2019-06-11T11:07:34.554Z,50
2019-06-11T11:08:54.690Z,50
2019-06-11T11:10:11.784Z,51
2019-06-11T11:11:16.434Z,51
2019-06-11T11:12:30.222Z,52
2019-06-11T11:13:34.102Z,51
2019-06-11T11:14:43.553Z,50
2019-06-11T11:16:02.869Z,51
2019-06-11T11:17:06.896Z,50
2019-06-11T11:18:14.275Z,49
2019-06-11T11:19:20.827Z,49
2019-06-11T11:20:27.409Z,50
2019-06-11T11:21:33.357Z,50
2019-06-11T11:22:47.744Z,50
2019-06-11T11:24:06.912Z,50
2019-06-11T11:25:14.233Z,50
2019-06-11T11:26:22.184Z,50
2019-06-11T11:27:25.851Z,50
2019-06-11T11:28:33.996Z,50
2019-06-11T11:29:41.124Z,50
2019-06-11T11:31:11.569Z,50
2019-06-11T11:32:16.785Z,50
2019-06-11T11:33:25.903Z,50
2019-06-11T11:34:37.565Z,51
2019-06-11T11:35:46.581Z,51
2019-06-11T11:37:06.339Z,52
2019-06-11T11:38:23.070Z,53
2019-06-11T11:39:35.032Z,52
2019-06-11T11:41:00.947Z,51
2019-06-11T11:42:30.363Z,51
2019-06-11T11:43:44.773Z,52
2019-06-11T11:44:51.499Z,52
2019-06-11T11:46:07.422Z,53
2019-06-11T11:47:12.770Z,53
2019-06-11T11:48:14.964Z,53
2019-06-11T11:49:23.788Z,53
2019-06-11T11:50:25.972Z,52
2019-06-11T11:51:30.676Z,53
2019-06-11T11:52:33.148Z,52
2019-06-11T11:53:35.714Z,53
2019-06-11T11:54:41.321Z,54
2019-06-11T11:55:43.852Z,54
2019-06-11T11:56:49.570Z,54
2019-06-11T11:58:02.253Z,56
2019-06-11T11:59:04.938Z,55
2019-06-11T12:00:22.435Z,54
2019-06-11T12:01:24.887Z,54
2019-06-11T12:02:27.074Z,53
2019-06-11T12:03:29.359Z,53
2019-06-11T12:04:32.334Z,53
2019-06-11T12:05:34.836Z,54
2019-06-11T12:06:37.122Z,53
2019-06-11T12:07:41.922Z,53
2019-06-11T12:08:44.188Z,53
2019-06-11T12:09:53.083Z,53
2019-06-11T12:11:02.947Z,53
2019-06-11T12:12:05.754Z,53
2019-06-11T12:13:08.301Z,52
2019-06-11T12:14:12.505Z,53
2019-06-11T12:15:14.718Z,52
2019-06-11T12:16:43.434Z,53
2019-06-11T12:17:45.921Z,53
2019-06-11T12:19:22.801Z,52
2019-06-11T12:20:25.244Z,54
2019-06-11T12:21:27.494Z,52
2019-06-11T12:22:32.258Z,53
2019-06-11T12:23:34.548Z,52
2019-06-11T12:24:37.174Z,51
2019-06-11T12:25:42.593Z,50
2019-06-11T12:26:44.870Z,52
2019-06-11T12:27:55.809Z,51
2019-06-11T12:29:03.664Z,51
2019-06-11T12:30:15.943Z,51
2019-06-11T12:31:20.658Z,50
2019-06-11T12:32:22.865Z,50
2019-06-11T12:33:25.100Z,51
2019-06-11T12:34:27.749Z,50
2019-06-11T12:35:32.256Z,50
2019-06-11T12:36:34.780Z,50
2019-06-11T12:37:36.981Z,49
2019-06-11T12:38:43.443Z,49
2019-06-11T12:39:46.031Z,49
2019-06-11T12:41:09.553Z,48
2019-06-11T12:42:12.616Z,49
2019-06-11T12:43:41.794Z,49
2019-06-11T12:44:44.017Z,48
2019-06-11T12:45:46.202Z,48
2019-06-11T12:47:05.281Z,50
2019-06-11T12:48:07.636Z,48
2019-06-11T12:49:14.331Z,48
2019-06-11T12:50:16.531Z,47
2019-06-11T12:51:23.659Z,48
2019-06-11T12:52:25.891Z,47
2019-06-11T12:53:30.624Z,46
2019-06-11T12:54:33.143Z,48
2019-06-11T12:55:35.323Z,47
2019-06-11T12:56:42.115Z,46
2019-06-11T12:57:45.791Z,45
2019-06-11T12:58:58.466Z,45
2019-06-11T13:00:13.619Z,45
2019-06-11T13:01:15.798Z,45
2019-06-11T13:02:19.108Z,43
2019-06-11T13:03:24.375Z,44
2019-06-11T13:04:26.614Z,43
2019-06-11T13:05:32.014Z,42
2019-06-11T13:06:35.523Z,43
2019-06-11T13:07:42.097Z,44
2019-06-11T13:08:45.100Z,44
2019-06-11T13:09:47.911Z,43
2019-06-11T13:11:07.261Z,43
2019-06-11T13:12:13.857Z,43
2019-06-11T13:13:40.063Z,44
2019-06-11T13:14:43.541Z,43
2019-06-11T13:15:45.752Z,43
2019-06-11T13:16:50.996Z,42
2019-06-11T13:18:05.794Z,41
2019-06-11T13:19:11.149Z,42
2019-06-11T13:20:14.115Z,42
2019-06-11T13:21:16.729Z,42
2019-06-11T13:22:21.413Z,42
2019-06-11T13:23:25.236Z,41
2019-06-11T13:24:30.436Z,42
2019-06-11T13:25:33.777Z,41
2019-06-11T13:26:38.046Z,41
2019-06-11T13:27:41.709Z,41
2019-06-11T13:28:45.735Z,40
2019-06-11T13:29:53.391Z,41
2019-06-11T13:31:14.022Z,40
2019-06-11T13:32:17.556Z,39
2019-06-11T13:33:26.570Z,40
2019-06-11T13:34:31.729Z,39
2019-06-11T13:35:36.007Z,39
2019-06-11T13:36:42.319Z,40
2019-06-11T13:37:44.787Z,40
2019-06-11T13:38:47.465Z,40
2019-06-11T13:39:52.036Z,40
2019-06-11T13:41:02.203Z,39
2019-06-11T13:42:21.426Z,39
2019-06-11T13:43:26.823Z,39
2019-06-11T13:44:41.906Z,39
2019-06-11T13:45:45.148Z,40
2019-06-11T13:46:49.667Z,40
2019-06-11T13:47:58.956Z,41
2019-06-11T13:49:14.029Z,40
2019-06-11T13:50:17.176Z,39
2019-06-11T13:51:23.412Z,40
2019-06-11T13:52:34.086Z,39
2019-06-11T13:53:40.630Z,40
2019-06-11T13:54:45.427Z,40
2019-06-11T13:55:56.638Z,41
2019-06-11T13:57:16.127Z,42
2019-06-11T13:58:23.815Z,41
2019-06-11T13:59:30.956Z,41
2019-06-11T14:00:34.528Z,41
2019-06-11T14:01:37.638Z,41
2019-06-11T14:02:43.846Z,40
2019-06-11T14:03:47.184Z,39
2019-06-11T14:04:55.105Z,39
2019-06-11T14:06:06.613Z,39
2019-06-11T14:07:11.827Z,40
2019-06-11T14:08:16.250Z,39
2019-06-11T14:09:22.576Z,38
2019-06-11T14:10:26.650Z,38
2019-06-11T14:11:31.983Z,38
2019-06-11T14:12:41.173Z,38
2019-06-11T14:13:46.854Z,38
2019-06-11T14:14:54.829Z,38
2019-06-11T14:16:07.730Z,38
2019-06-11T14:17:13.174Z,39
2019-06-11T14:18:21.265Z,38
2019-06-11T14:19:27.412Z,37
2019-06-11T14:20:34.545Z,37
2019-06-11T14:21:41.422Z,37
2019-06-11T14:22:47.172Z,37
2019-06-11T14:24:01.603Z,36
2019-06-11T14:25:05.175Z,36
2019-06-11T14:26:12.155Z,36
2019-06-11T14:27:19.771Z,35
2019-06-11T14:28:24.866Z,35
2019-06-11T14:29:33.415Z,36
2019-06-11T14:30:37.342Z,37
2019-06-11T14:31:45.082Z,37
2019-06-11T14:32:59.829Z,37
2019-06-11T14:34:15.116Z,37
2019-06-11T14:35:23.288Z,35
2019-06-11T14:36:26.456Z,36
2019-06-11T14:37:34.608Z,36
2019-06-11T14:38:37.638Z,36
2019-06-11T14:39:44.453Z,35
2019-06-11T14:40:51.946Z,35
2019-06-11T14:41:58.926Z,33
2019-06-11T14:43:13.504Z,34
2019-06-11T14:44:47.359Z,34
2019-06-11T14:45:53.151Z,34
2019-06-11T14:47:08.562Z,33
2019-06-11T14:48:14.581Z,33
2019-06-11T14:49:16.833Z,34
2019-06-11T14:50:22.016Z,34
2019-06-11T14:51:24.391Z,34
2019-06-11T14:52:26.898Z,34
2019-06-11T14:53:32.199Z,35
2019-06-11T14:54:34.452Z,34
2019-06-11T14:55:36.701Z,34
2019-06-11T14:56:41.894Z,35
2019-06-11T14:57:44.097Z,35
2019-06-11T14:58:46.408Z,36
2019-06-11T14:59:51.056Z,36
2019-06-11T15:00:53.639Z,35
2019-06-11T15:01:58.775Z,33
2019-06-11T15:03:14.207Z,34
2019-06-11T15:04:16.477Z,35
2019-06-11T15:05:22.220Z,35
2019-06-11T15:06:24.595Z,36
2019-06-11T15:07:26.831Z,35
2019-06-11T15:08:29.101Z,35
2019-06-11T15:09:32.228Z,36
2019-06-11T15:10:34.499Z,37
2019-06-11T15:11:36.747Z,37
2019-06-11T15:12:42.037Z,37
2019-06-11T15:13:44.430Z,37
2019-06-11T15:15:24.125Z,37
2019-06-11T15:16:26.812Z,38
2019-06-11T15:17:42.714Z,36
2019-06-11T15:18:45.586Z,37
2019-06-11T15:20:26.630Z,37
2019-06-11T15:21:33.161Z,37
2019-06-11T15:22:35.306Z,37
2019-06-11T15:23:42.007Z,38
2019-06-11T15:24:44.324Z,37
2019-06-11T15:25:46.636Z,37
2019-06-11T15:26:52.399Z,38
2019-06-11T15:27:54.638Z,38
2019-06-11T15:28:56.860Z,38
2019-06-11T15:30:30.847Z,38
2019-06-11T15:31:40.858Z,39
2019-06-11T15:32:46.767Z,38
2019-06-11T15:33:52.833Z,40
2019-06-11T15:34:55.317Z,40
2019-06-11T15:35:57.633Z,40
2019-06-11T15:37:08.301Z,40
2019-06-11T15:38:22.908Z,39
2019-06-11T15:39:25.092Z,41
2019-06-11T15:40:28.350Z,39
2019-06-11T15:41:33.095Z,39
2019-06-11T15:42:35.343Z,39
2019-06-11T15:43:37.690Z,38
2019-06-11T15:44:40.186Z,38
2019-06-11T15:45:46.424Z,38
2019-06-11T15:46:51.908Z,38
2019-06-11T15:47:54.130Z,38
2019-06-11T15:48:56.382Z,37
2019-06-11T15:49:58.582Z,37
2019-06-11T15:51:04.234Z,36
2019-06-11T15:52:09.886Z,36
2019-06-11T15:53:15.795Z,36
2019-06-11T15:54:24.054Z,36
2019-06-11T15:55:26.239Z,36
2019-06-11T15:56:45.884Z,36
2019-06-11T15:57:48.065Z,35
2019-06-11T15:58:51.700Z,34
2019-06-11T15:59:54.206Z,34
2019-06-11T16:00:56.550Z,35
2019-06-11T16:02:09.996Z,34
2019-06-11T16:03:23.878Z,35
2019-06-11T16:04:26.430Z,36
2019-06-11T16:05:31.502Z,37
2019-06-11T16:06:41.443Z,36
2019-06-11T16:07:43.673Z,35
2019-06-11T16:08:46.197Z,35
2019-06-11T16:09:52.040Z,37
2019-06-11T16:10:54.632Z,37
2019-06-11T16:11:56.867Z,37
2019-06-11T16:13:07.004Z,37
2019-06-11T16:14:16.749Z,37
2019-06-11T16:15:51.941Z,36
2019-06-11T16:16:55.482Z,37
2019-06-11T16:18:00.419Z,37
2019-06-11T16:19:05.744Z,38
2019-06-11T16:20:23.341Z,39
2019-06-11T16:21:26.628Z,39
2019-06-11T16:22:31.511Z,39
2019-06-11T16:23:33.891Z,37
2019-06-11T16:24:36.680Z,39
2019-06-11T16:25:41.593Z,39
2019-06-11T16:26:43.811Z,39
2019-06-11T16:27:46.873Z,39
2019-06-11T16:28:52.717Z,38
2019-06-11T16:29:55.993Z,38
2019-06-11T16:31:01.434Z,39
2019-06-11T16:32:13.125Z,38
2019-06-11T16:33:22.199Z,39
2019-06-11T16:34:25.797Z,39
2019-06-11T16:35:28.093Z,39
2019-06-11T16:36:33.590Z,39
2019-06-11T16:37:35.964Z,39
2019-06-11T16:38:41.055Z,39
2019-06-11T16:39:43.518Z,40
2019-06-11T16:40:46.269Z,40
2019-06-11T16:41:50.785Z,41
2019-06-11T16:42:55.166Z,41
2019-06-11T16:44:00.355Z,41
2019-06-11T16:45:03.186Z,41
2019-06-11T16:46:30.744Z,41
2019-06-11T16:47:33.725Z,41
2019-06-11T16:48:36.051Z,41
2019-06-11T16:49:42.219Z,41
2019-06-11T16:50:44.492Z,42
2019-06-11T16:51:51.080Z,43
2019-06-11T16:52:54.134Z,41
2019-06-11T16:53:56.967Z,43
2019-06-11T16:55:03.324Z,43
2019-06-11T16:56:07.175Z,42
2019-06-11T16:57:20.835Z,42
2019-06-11T16:58:23.339Z,42
2019-06-11T16:59:26.666Z,42
2019-06-11T17:00:33.994Z,42
2019-06-11T17:01:37.402Z,42
2019-06-11T17:02:41.973Z,42
2019-06-11T17:03:44.338Z,42
2019-06-11T17:04:46.641Z,42
2019-06-11T17:05:52.038Z,43
2019-06-11T17:06:54.749Z,43
2019-06-11T17:08:02.635Z,43
2019-06-11T17:09:04.820Z,43
2019-06-11T17:10:08.369Z,44
2019-06-11T17:11:23.972Z,44
2019-06-11T17:12:26.414Z,44
2019-06-11T17:13:34.218Z,44
2019-06-11T17:14:36.490Z,45
2019-06-11T17:15:45.007Z,44
2019-06-11T17:16:47.525Z,45
2019-06-11T17:18:01.373Z,45
2019-06-11T17:19:04.054Z,45
2019-06-11T17:20:06.259Z,45
2019-06-11T17:21:24.574Z,45
2019-06-11T17:22:31.403Z,45
2019-06-11T17:23:33.585Z,45
2019-06-11T17:24:35.804Z,45
2019-06-11T17:25:41.145Z,45
2019-06-11T17:26:43.357Z,45
2019-06-11T17:27:55.981Z,46
2019-06-11T17:29:00.790Z,46
2019-06-11T17:30:02.993Z,46
2019-06-11T17:31:05.211Z,47
2019-06-11T17:32:07.693Z,48
2019-06-11T17:33:15.771Z,48
2019-06-11T17:34:21.847Z,48
2019-06-11T17:35:23.990Z,48
2019-06-11T17:36:32.259Z,48
2019-06-11T17:37:34.850Z,49
2019-06-11T17:38:37.367Z,48
2019-06-11T17:39:42.804Z,49
2019-06-11T17:40:45.080Z,49
2019-06-11T17:41:47.267Z,49
2019-06-11T17:42:51.506Z,49
2019-06-11T17:43:53.720Z,49
2019-06-11T17:44:55.912Z,49
2019-06-11T17:45:58.173Z,49
2019-06-11T17:47:02.208Z,49
2019-06-11T17:48:04.491Z,50
2019-06-11T17:49:06.685Z,50
2019-06-11T17:50:12.225Z,50
2019-06-11T17:51:16.216Z,50
2019-06-11T17:52:26.877Z,50
2019-06-11T17:53:32.640Z,50
2019-06-11T17:54:34.829Z,50
2019-06-11T17:55:37.069Z,50
2019-06-11T17:56:44.201Z,50
2019-06-11T17:57:46.752Z,50
2019-06-11T17:58:51.140Z,50
2019-06-11T17:59:53.657Z,50
2019-06-11T18:00:55.931Z,49
2019-06-11T18:02:01.434Z,49
2019-06-11T18:03:04.119Z,49
2019-06-11T18:04:06.340Z,49
2019-06-11T18:05:11.486Z,49
2019-06-11T18:06:15.314Z,49
2019-06-11T18:07:23.925Z,49
2019-06-11T18:08:36.934Z,49
2019-06-11T18:09:42.355Z,49
2019-06-11T18:10:44.606Z,49
2019-06-11T18:11:46.799Z,49
2019-06-11T18:12:51.591Z,49
2019-06-11T18:13:53.768Z,49
2019-06-11T18:14:56.354Z,49
2019-06-11T18:16:02.488Z,49
2019-06-11T18:17:04.699Z,50
2019-06-11T18:18:06.987Z,50
2019-06-11T18:19:11.058Z,50
2019-06-11T18:20:14.041Z,50
2019-06-11T18:21:19.181Z,50
2019-06-11T18:22:28.181Z,50
2019-06-11T18:23:31.210Z,50
2019-06-11T18:24:34.961Z,50
2019-06-11T18:25:37.252Z,50
2019-06-11T18:26:46.048Z,50
2019-06-11T18:27:51.049Z,51
2019-06-11T18:28:53.532Z,51
2019-06-11T18:29:55.708Z,51
2019-06-11T18:31:00.920Z,51
2019-06-11T18:32:03.769Z,51
2019-06-11T18:33:06.030Z,51
2019-06-11T18:34:11.378Z,52
2019-06-11T18:35:13.652Z,52
2019-06-11T18:36:15.841Z,52
2019-06-11T18:37:33.506Z,52
2019-06-11T18:38:42.227Z,52
2019-06-11T18:39:44.686Z,51
2019-06-11T18:40:46.903Z,51
2019-06-11T18:41:51.422Z,52
2019-06-11T18:42:53.687Z,52
2019-06-11T18:43:56.174Z,52
2019-06-11T18:44:58.416Z,52
2019-06-11T18:46:00.886Z,52
2019-06-11T18:47:11.808Z,52
2019-06-11T18:48:14.295Z,52
2019-06-11T18:49:16.471Z,52
2019-06-11T18:50:30.096Z,52
2019-06-11T18:51:34.804Z,52
2019-06-11T18:52:41.113Z,53
2019-06-11T18:53:43.997Z,52
2019-06-11T18:54:46.203Z,52
2019-06-11T18:55:51.274Z,53
2019-06-11T18:56:53.455Z,53
2019-06-11T18:57:55.733Z,53
2019-06-11T18:59:00.645Z,53
2019-06-11T19:00:02.904Z,54
2019-06-11T19:01:05.462Z,53
2019-06-11T19:02:07.640Z,53
2019-06-11T19:03:12.901Z,53
2019-06-11T19:04:15.412Z,53
2019-06-11T19:05:17.673Z,54
2019-06-11T19:06:26.538Z,54
2019-06-11T19:07:34.399Z,54
2019-06-11T19:08:36.594Z,54
2019-06-11T19:09:41.640Z,54
2019-06-11T19:10:43.844Z,54
2019-06-11T19:11:46.368Z,54
2019-06-11T19:12:51.648Z,54
2019-06-11T19:13:53.881Z,54
2019-06-11T19:14:56.235Z,54
2019-06-11T19:16:01.120Z,54
2019-06-11T19:17:03.340Z,55
2019-06-11T19:18:05.540Z,55
2019-06-11T19:19:07.753Z,55
2019-06-11T19:20:15.732Z,55
2019-06-11T19:21:23.458Z,55
2019-06-11T19:22:33.814Z,55
2019-06-11T19:23:36.031Z,55
2019-06-11T19:24:38.572Z,55
2019-06-11T19:25:50.541Z,55
2019-06-11T19:26:52.765Z,55
2019-06-11T19:28:15.451Z,56
2019-06-11T19:29:17.597Z,56
2019-06-11T19:30:27.221Z,56
2019-06-11T19:31:37.210Z,56
2019-06-11T19:32:45.055Z,56
2019-06-11T19:33:47.815Z,56
2019-06-11T19:34:51.954Z,56
2019-06-11T19:35:54.157Z,56
2019-06-11T19:36:56.392Z,56
2019-06-11T19:38:01.239Z,56
2019-06-11T19:39:03.733Z,56
2019-06-11T19:40:05.990Z,57
2019-06-11T19:41:08.466Z,57
2019-06-11T19:42:11.619Z,57
2019-06-11T19:43:13.809Z,57
2019-06-11T19:44:16.001Z,57
2019-06-11T19:45:18.214Z,57
2019-06-11T19:46:31.161Z,57
2019-06-11T19:48:03.385Z,57
2019-06-11T19:49:05.570Z,57
2019-06-11T19:50:07.755Z,58
2019-06-11T19:51:12.634Z,57
2019-06-11T19:52:15.104Z,57
2019-06-11T19:53:17.226Z,58
2019-06-11T19:54:22.137Z,57
2019-06-11T19:55:26.555Z,57
2019-06-11T19:56:42.250Z,57
2019-06-11T19:57:44.731Z,57
2019-06-11T19:58:46.957Z,58
2019-06-11T19:59:51.918Z,58
2019-06-11T20:00:54.094Z,58
2019-06-11T20:01:56.671Z,58
2019-06-11T20:03:02.045Z,59
2019-06-11T20:04:04.241Z,60
2019-06-11T20:05:06.859Z,60
2019-06-11T20:06:12.399Z,59
2019-06-11T20:07:14.638Z,59
2019-06-11T20:08:16.818Z,60
2019-06-11T20:09:21.207Z,60
2019-06-11T20:10:23.416Z,60
2019-06-11T20:11:40.929Z,59
2019-06-11T20:12:43.715Z,59
2019-06-11T20:13:45.911Z,59
2019-06-11T20:14:50.708Z,59
2019-06-11T20:15:53.321Z,60
2019-06-11T20:16:55.581Z,59
2019-06-11T20:18:06.043Z,59
2019-06-11T20:19:11.074Z,60
2019-06-11T20:20:13.320Z,59
2019-06-11T20:21:15.493Z,60
2019-06-11T20:22:20.334Z,60
2019-06-11T20:23:22.834Z,60
2019-06-11T20:24:25.370Z,60
2019-06-11T20:25:42.400Z,60
2019-06-11T20:26:44.876Z,60
2019-06-11T20:27:47.049Z,60
2019-06-11T20:28:51.732Z,60
2019-06-11T20:29:54.367Z,60
2019-06-11T20:30:56.839Z,60
2019-06-11T20:32:03.809Z,61
2019-06-11T20:33:06.643Z,60
2019-06-11T20:34:11.230Z,60
2019-06-11T20:35:13.870Z,60
2019-06-11T20:36:16.077Z,60
2019-06-11T20:37:20.848Z,60
2019-06-11T20:38:23.038Z,61
2019-06-11T20:39:25.274Z,61
2019-06-11T20:40:34.117Z,61
2019-06-11T20:41:44.201Z,62
2019-06-11T20:42:46.392Z,61
2019-06-11T20:43:51.167Z,62
2019-06-11T20:44:53.335Z,62
2019-06-11T20:45:55.537Z,62
2019-06-11T20:46:57.789Z,62
2019-06-11T20:48:29.182Z,62
2019-06-11T20:49:43.134Z,62
2019-06-11T20:50:45.611Z,62
2019-06-11T20:51:50.391Z,62
2019-06-11T20:52:53.150Z,62
2019-06-11T20:53:55.789Z,62
2019-06-11T20:54:57.989Z,62
2019-06-11T20:56:05.412Z,62
2019-06-11T20:57:08.060Z,62
2019-06-11T20:58:11.237Z,62
2019-06-11T20:59:13.426Z,63
2019-06-11T21:00:15.609Z,63
2019-06-11T21:01:20.433Z,63
2019-06-11T21:02:23.086Z,63
2019-06-11T21:03:25.280Z,62
2019-06-11T21:04:27.545Z,63
2019-06-11T21:05:36.905Z,63
2019-06-11T21:06:45.213Z,62
2019-06-11T21:07:47.414Z,63
2019-06-11T21:08:51.263Z,63
2019-06-11T21:09:53.674Z,63
2019-06-11T21:10:56.153Z,63
2019-06-11T21:12:01.470Z,63
2019-06-11T21:13:04.330Z,63
2019-06-11T21:14:06.577Z,63
2019-06-11T21:15:11.389Z,63
2019-06-11T21:16:13.900Z,62
2019-06-11T21:17:16.767Z,63
2019-06-11T21:18:52.536Z,63
2019-06-11T21:19:55.504Z,63
2019-06-11T21:20:57.710Z,63
2019-06-11T21:22:01.633Z,63
2019-06-11T21:23:03.804Z,63
2019-06-11T21:24:06.051Z,62
2019-06-11T21:25:10.804Z,62
2019-06-11T21:26:13.074Z,62
2019-06-11T21:27:15.870Z,63
2019-06-11T21:28:18.064Z,63
2019-06-11T21:29:21.136Z,62
2019-06-11T21:30:23.326Z,62
2019-06-11T21:31:25.875Z,63
2019-06-11T21:32:28.045Z,63
2019-06-11T21:33:30.539Z,63
2019-06-11T21:34:32.734Z,63
2019-06-11T21:35:36.523Z,63
2019-06-11T21:36:46.961Z,63
2019-06-11T21:37:52.945Z,63
2019-06-11T21:38:55.171Z,63
2019-06-11T21:39:57.375Z,62
2019-06-11T21:41:02.302Z,62
2019-06-11T21:42:04.473Z,63
2019-06-11T21:43:06.744Z,63
2019-06-11T21:44:09.002Z,62
2019-06-11T21:45:12.023Z,62
2019-06-11T21:46:14.674Z,62
2019-06-11T21:47:16.864Z,61
2019-06-11T21:48:21.773Z,61
2019-06-11T21:49:24.003Z,62
2019-06-11T21:50:26.196Z,62
2019-06-11T21:51:31.379Z,61
2019-06-11T21:52:33.581Z,61
2019-06-11T21:53:37.881Z,61
2019-06-11T21:54:47.126Z,60
2019-06-11T21:55:51.483Z,61
2019-06-11T21:56:53.685Z,61
2019-06-11T21:57:55.870Z,60
2019-06-11T21:58:58.149Z,61
2019-06-11T22:00:02.376Z,60
2019-06-11T22:01:04.933Z,60
2019-06-11T22:02:07.119Z,61
2019-06-11T22:03:11.767Z,61
2019-06-11T22:04:13.959Z,60
2019-06-11T22:05:16.154Z,61
2019-06-11T22:06:21.020Z,61
2019-06-11T22:07:23.214Z,61
2019-06-11T22:08:25.850Z,60
2019-06-11T22:09:30.518Z,60
2019-06-11T22:10:41.145Z,60
2019-06-11T22:11:52.423Z,61
2019-06-11T22:12:54.600Z,61
2019-06-11T22:13:57.232Z,61
2019-06-11T22:15:02.612Z,61
2019-06-11T22:16:05.552Z,61
2019-06-11T22:17:07.743Z,61
2019-06-11T22:18:12.758Z,61
2019-06-11T22:19:26.143Z,61
2019-06-11T22:20:32.668Z,61
2019-06-11T22:21:34.915Z,61
2019-06-11T22:22:42.217Z,61
2019-06-11T22:23:52.145Z,61
2019-06-11T22:24:54.365Z,60
2019-06-11T22:25:56.552Z,61
2019-06-11T22:27:01.589Z,60
2019-06-11T22:28:04.071Z,60
2019-06-11T22:29:06.298Z,61
2019-06-11T22:30:11.472Z,61
2019-06-11T22:31:13.737Z,61
2019-06-11T22:32:15.979Z,61
2019-06-11T22:33:20.954Z,60
2019-06-11T22:34:23.548Z,61
2019-06-11T22:35:26.120Z,60
2019-06-11T22:36:28.371Z,60
2019-06-11T22:37:32.126Z,60
2019-06-11T22:38:34.688Z,60
2019-06-11T22:39:37.991Z,60
2019-06-11T22:40:51.887Z,60
2019-06-11T22:41:54.178Z,60
2019-06-11T22:42:56.343Z,60
2019-06-11T22:44:01.529Z,60
2019-06-11T22:45:04.110Z,60
2019-06-11T22:46:06.735Z,61
2019-06-11T22:47:11.811Z,62
2019-06-11T22:48:14.265Z,63
2019-06-11T22:49:37.422Z,64
2019-06-11T22:50:52.679Z,65
2019-06-11T22:52:03.903Z,65
2019-06-11T22:53:06.100Z,65
2019-06-11T22:54:10.910Z,65
2019-06-11T22:55:13.120Z,64
2019-06-11T22:56:15.362Z,65
2019-06-11T22:57:17.562Z,65
2019-06-11T22:58:21.817Z,67
2019-06-11T22:59:24.300Z,68
2019-06-11T23:00:26.470Z,68
2019-06-11T23:01:31.159Z,67
2019-06-11T23:02:33.347Z,68
2019-06-11T23:03:35.578Z,68
2019-06-11T23:04:37.768Z,68
2019-06-11T23:05:50.891Z,68
2019-06-11T23:06:53.102Z,69
2019-06-11T23:07:55.846Z,68
2019-06-11T23:08:58.097Z,68
2019-06-11T23:10:02.928Z,69
2019-06-11T23:11:05.175Z,68
2019-06-11T23:12:07.368Z,67
2019-06-11T23:13:09.622Z,67
2019-06-11T23:14:11.797Z,67
2019-06-11T23:15:14.003Z,67
2019-06-11T23:16:16.244Z,67
2019-06-11T23:17:21.277Z,69
2019-06-11T23:18:23.673Z,71
2019-06-11T23:19:26.144Z,72
2019-06-11T23:20:30.841Z,72
2019-06-11T23:21:33.038Z,70
2019-06-11T23:22:35.238Z,69
2019-06-11T23:23:40.071Z,68
2019-06-11T23:24:44.875Z,68
2019-06-11T23:25:54.916Z,68
2019-06-11T23:26:57.261Z,68
2019-06-11T23:28:01.019Z,68
2019-06-11T23:29:03.604Z,68
2019-06-11T23:30:06.180Z,68
2019-06-11T23:31:08.444Z,68
2019-06-11T23:32:11.573Z,68
2019-06-11T23:33:13.852Z,68
2019-06-11T23:34:16.020Z,68
2019-06-11T23:35:21.219Z,68
2019-06-11T23:36:23.458Z,68
2019-06-11T23:37:25.621Z,68
2019-06-11T23:38:30.749Z,69
2019-06-11T23:39:33.222Z,69
2019-06-11T23:40:35.410Z,69
2019-06-11T23:41:37.856Z,69
2019-06-11T23:42:40.327Z,69
2019-06-11T23:43:44.493Z,69
2019-06-11T23:44:48.410Z,68
2019-06-11T23:45:57.942Z,68
2019-06-11T23:47:00.516Z,68
2019-06-11T23:48:02.741Z,68
2019-06-11T23:49:04.935Z,68
2019-06-11T23:50:26.904Z,70
2019-06-11T23:51:31.840Z,71
2019-06-11T23:52:34.024Z,72
2019-06-11T23:53:36.246Z,72
2019-06-11T23:54:38.435Z,71
2019-06-11T23:55:40.681Z,71
2019-06-11T23:56:42.880Z,72
2019-06-11T23:57:47.411Z,73
2019-06-11T23:58:55.639Z,72
